sensor_id;sensor_type;location;lat;lon;timestamp;pressure;altitude;pressure_sealevel;temperature;humidity
19286;BME280;9776;50.798;6.430;2023-02-20T00:01:46;101285.53;;;7.69;71.18
19286;BME280;9776;50.798;6.430;2023-02-20T00:04:13;101283.53;;;7.72;71.04
19286;BME280;9776;50.798;6.430;2023-02-20T00:06:40;101272.91;;;7.74;70.81
19286;BME280;9776;50.798;6.430;2023-02-20T00:09:06;101282.59;;;7.73;70.75
19286;BME280;9776;50.798;6.430;2023-02-20T00:11:33;101272.09;;;7.73;70.74
19286;BME280;9776;50.798;6.430;2023-02-20T00:14:00;101262.38;;;7.74;70.71
19286;BME280;9776;50.798;6.430;2023-02-20T00:16:27;101269.44;;;7.73;70.80
19286;BME280;9776;50.798;6.430;2023-02-20T00:18:55;101267.03;;;7.70;70.73
19286;BME280;9776;50.798;6.430;2023-02-20T00:21:22;101267.84;;;7.71;70.72
19286;BME280;9776;50.798;6.430;2023-02-20T00:23:48;101271.22;;;7.73;70.58
19286;BME280;9776;50.798;6.430;2023-02-20T00:26:15;101267.13;;;7.69;70.48
19286;BME280;9776;50.798;6.430;2023-02-20T00:28:42;101272.50;;;7.67;70.62
19286;BME280;9776;50.798;6.430;2023-02-20T00:31:12;101262.94;;;7.66;70.63
19286;BME280;9776;50.798;6.430;2023-02-20T00:33:40;101259.59;;;7.64;70.52
19286;BME280;9776;50.798;6.430;2023-02-20T00:36:13;101250.13;;;7.62;70.49
19286;BME280;9776;50.798;6.430;2023-02-20T00:38:41;101244.25;;;7.58;70.61
19286;BME280;9776;50.798;6.430;2023-02-20T00:41:08;101252.84;;;7.60;70.65
19286;BME280;9776;50.798;6.430;2023-02-20T00:43:35;101246.88;;;7.58;70.51
19286;BME280;9776;50.798;6.430;2023-02-20T00:46:03;101247.59;;;7.60;70.38
19286;BME280;9776;50.798;6.430;2023-02-20T00:48:30;101243.06;;;7.62;70.16
19286;BME280;9776;50.798;6.430;2023-02-20T00:50:57;101234.25;;;7.63;70.24
19286;BME280;9776;50.798;6.430;2023-02-20T00:53:25;101234.25;;;7.63;70.13
19286;BME280;9776;50.798;6.430;2023-02-20T00:55:52;101230.78;;;7.63;69.97
19286;BME280;9776;50.798;6.430;2023-02-20T00:58:18;101229.00;;;7.63;70.01
19286;BME280;9776;50.798;6.430;2023-02-20T01:00:45;101227.00;;;7.67;69.93
19286;BME280;9776;50.798;6.430;2023-02-20T01:03:12;101220.91;;;7.66;69.91
19286;BME280;9776;50.798;6.430;2023-02-20T01:05:39;101219.19;;;7.65;70.03
19286;BME280;9776;50.798;6.430;2023-02-20T01:08:05;101225.44;;;7.64;70.14
19286;BME280;9776;50.798;6.430;2023-02-20T01:10:33;101223.31;;;7.69;70.09
19286;BME280;9776;50.798;6.430;2023-02-20T01:13:00;101203.22;;;7.68;70.08
19286;BME280;9776;50.798;6.430;2023-02-20T01:15:27;101211.94;;;7.69;70.12
19286;BME280;9776;50.798;6.430;2023-02-20T01:17:54;101209.22;;;7.70;70.29
19286;BME280;9776;50.798;6.430;2023-02-20T01:20:20;101213.84;;;7.67;70.18
19286;BME280;9776;50.798;6.430;2023-02-20T01:22:47;101211.09;;;7.68;70.22
19286;BME280;9776;50.798;6.430;2023-02-20T01:25:14;101209.22;;;7.70;70.51
19286;BME280;9776;50.798;6.430;2023-02-20T01:27:42;101190.94;;;7.69;70.59
19286;BME280;9776;50.798;6.430;2023-02-20T01:30:09;101194.28;;;7.71;70.64
19286;BME280;9776;50.798;6.430;2023-02-20T01:32:36;101197.97;;;7.68;70.71
19286;BME280;9776;50.798;6.430;2023-02-20T01:35:03;101191.56;;;7.72;70.76
19286;BME280;9776;50.798;6.430;2023-02-20T01:37:30;101189.88;;;7.71;70.80
19286;BME280;9776;50.798;6.430;2023-02-20T01:39:57;101182.09;;;7.70;70.88
19286;BME280;9776;50.798;6.430;2023-02-20T01:42:27;101185.66;;;7.69;70.88
19286;BME280;9776;50.798;6.430;2023-02-20T01:45:28;101185.03;;;7.65;71.10
19286;BME280;9776;50.798;6.430;2023-02-20T01:47:56;101174.31;;;7.68;71.05
19286;BME280;9776;50.798;6.430;2023-02-20T01:50:26;101167.63;;;7.64;71.16
19286;BME280;9776;50.798;6.430;2023-02-20T01:52:58;101160.56;;;7.65;71.06
19286;BME280;9776;50.798;6.430;2023-02-20T01:55:29;101152.78;;;7.63;70.99
19286;BME280;9776;50.798;6.430;2023-02-20T01:58:00;101146.47;;;7.66;71.13
19286;BME280;9776;50.798;6.430;2023-02-20T02:00:29;101149.00;;;7.67;71.12
19286;BME280;9776;50.798;6.430;2023-02-20T02:03:01;101137.75;;;7.65;70.95
19286;BME280;9776;50.798;6.430;2023-02-20T02:05:31;101151.84;;;7.64;71.08
19286;BME280;9776;50.798;6.430;2023-02-20T02:08:00;101147.41;;;7.65;71.04
19286;BME280;9776;50.798;6.430;2023-02-20T02:10:31;101148.03;;;7.68;71.10
19286;BME280;9776;50.798;6.430;2023-02-20T02:13:01;101154.88;;;7.71;71.00
19286;BME280;9776;50.798;6.430;2023-02-20T02:15:29;101162.53;;;7.74;70.93
19286;BME280;9776;50.798;6.430;2023-02-20T02:21:21;101161.19;;;7.68;71.06
19286;BME280;9776;50.798;6.430;2023-02-20T02:24:22;101153.41;;;7.67;70.99
19286;BME280;9776;50.798;6.430;2023-02-20T02:30:47;101149.16;;;7.53;71.36
19286;BME280;9776;50.798;6.430;2023-02-20T02:36:47;101150.41;;;7.48;71.63
19286;BME280;9776;50.798;6.430;2023-02-20T02:39:20;101149.38;;;7.50;71.42
19286;BME280;9776;50.798;6.430;2023-02-20T02:41:55;101137.41;;;7.46;71.50
19286;BME280;9776;50.798;6.430;2023-02-20T02:44:28;101139.19;;;7.46;71.68
19286;BME280;9776;50.798;6.430;2023-02-20T02:47:00;101129.75;;;7.43;71.81
19286;BME280;9776;50.798;6.430;2023-02-20T02:49:31;101132.50;;;7.41;71.88
19286;BME280;9776;50.798;6.430;2023-02-20T02:52:01;101128.41;;;7.37;72.08
19286;BME280;9776;50.798;6.430;2023-02-20T02:54:29;101122.31;;;7.37;72.09
19286;BME280;9776;50.798;6.430;2023-02-20T02:57:21;101114.00;;;7.30;72.01
19286;BME280;9776;50.798;6.430;2023-02-20T02:59:51;101111.38;;;7.30;72.18
19286;BME280;9776;50.798;6.430;2023-02-20T03:02:20;101104.34;;;7.31;72.20
19286;BME280;9776;50.798;6.430;2023-02-20T03:04:50;101096.47;;;7.31;72.29
19286;BME280;9776;50.798;6.430;2023-02-20T03:07:20;101080.22;;;7.26;72.34
19286;BME280;9776;50.798;6.430;2023-02-20T03:09:51;101067.94;;;7.26;72.30
19286;BME280;9776;50.798;6.430;2023-02-20T03:12:20;101081.16;;;7.25;72.48
19286;BME280;9776;50.798;6.430;2023-02-20T03:14:55;101073.06;;;7.28;72.28
19286;BME280;9776;50.798;6.430;2023-02-20T03:17:44;101084.53;;;7.27;72.31
19286;BME280;9776;50.798;6.430;2023-02-20T03:20:15;101080.00;;;7.29;72.37
19286;BME280;9776;50.798;6.430;2023-02-20T03:22:47;101068.78;;;7.27;72.34
19286;BME280;9776;50.798;6.430;2023-02-20T03:25:19;101066.25;;;7.25;72.47
19286;BME280;9776;50.798;6.430;2023-02-20T03:27:51;101081.91;;;7.27;72.37
19286;BME280;9776;50.798;6.430;2023-02-20T03:30:22;101071.41;;;7.27;72.46
19286;BME280;9776;50.798;6.430;2023-02-20T03:32:55;101066.88;;;7.29;72.51
19286;BME280;9776;50.798;6.430;2023-02-20T03:35:43;101069.50;;;7.29;72.39
19286;BME280;9776;50.798;6.430;2023-02-20T03:38:31;101055.66;;;7.27;72.50
19286;BME280;9776;50.798;6.430;2023-02-20T03:41:18;101046.81;;;7.28;72.36
19286;BME280;9776;50.798;6.430;2023-02-20T03:44:04;101055.44;;;7.30;72.45
19286;BME280;9776;50.798;6.430;2023-02-20T03:46:34;101051.75;;;7.32;72.34
19286;BME280;9776;50.798;6.430;2023-02-20T03:49:06;101054.47;;;7.31;72.29
19286;BME280;9776;50.798;6.430;2023-02-20T03:51:38;101047.22;;;7.34;72.21
19286;BME280;9776;50.798;6.430;2023-02-20T03:54:27;101050.69;;;7.35;72.13
19286;BME280;9776;50.798;6.430;2023-02-20T03:56:56;101045.44;;;7.35;71.95
19286;BME280;9776;50.798;6.430;2023-02-20T03:59:29;101050.47;;;7.38;71.84
19286;BME280;9776;50.798;6.430;2023-02-20T04:02:02;101052.34;;;7.36;71.97
19286;BME280;9776;50.798;6.430;2023-02-20T04:04:33;101044.97;;;7.41;71.81
19286;BME280;9776;50.798;6.430;2023-02-20T04:07:05;101033.50;;;7.42;71.58
19286;BME280;9776;50.798;6.430;2023-02-20T04:09:37;101028.25;;;7.42;71.32
19286;BME280;9776;50.798;6.430;2023-02-20T04:12:11;101037.94;;;7.41;71.42
19286;BME280;9776;50.798;6.430;2023-02-20T04:14:40;101035.19;;;7.43;71.22
19286;BME280;9776;50.798;6.430;2023-02-20T04:17:12;101023.63;;;7.46;70.80
19286;BME280;9776;50.798;6.430;2023-02-20T04:19:40;101021.84;;;7.46;70.97
19286;BME280;9776;50.798;6.430;2023-02-20T04:22:10;101028.78;;;7.47;70.71
19286;BME280;9776;50.798;6.430;2023-02-20T04:24:43;101026.97;;;7.48;70.44
19286;BME280;9776;50.798;6.430;2023-02-20T04:27:13;101022.69;;;7.47;70.38
19286;BME280;9776;50.798;6.430;2023-02-20T04:29:40;101023.53;;;7.47;70.20
19286;BME280;9776;50.798;6.430;2023-02-20T04:32:07;101025.19;;;7.48;70.02
19286;BME280;9776;50.798;6.430;2023-02-20T04:34:33;101026.03;;;7.49;69.85
19286;BME280;9776;50.798;6.430;2023-02-20T04:37:06;101024.13;;;7.51;69.70
19286;BME280;9776;50.798;6.430;2023-02-20T04:39:33;101033.91;;;7.49;69.64
19286;BME280;9776;50.798;6.430;2023-02-20T04:42:02;101030.22;;;7.51;69.57
19286;BME280;9776;50.798;6.430;2023-02-20T04:44:29;101019.94;;;7.48;69.25
19286;BME280;9776;50.798;6.430;2023-02-20T04:47:01;101026.88;;;7.49;68.91
19286;BME280;9776;50.798;6.430;2023-02-20T04:49:28;101027.72;;;7.50;69.09
19286;BME280;9776;50.798;6.430;2023-02-20T04:51:55;101021.63;;;7.49;68.68
19286;BME280;9776;50.798;6.430;2023-02-20T04:54:22;101025.09;;;7.50;68.52
19286;BME280;9776;50.798;6.430;2023-02-20T04:56:49;101020.91;;;7.47;68.53
19286;BME280;9776;50.798;6.430;2023-02-20T04:59:17;101024.34;;;7.48;68.40
19286;BME280;9776;50.798;6.430;2023-02-20T05:01:44;101025.63;;;7.42;68.35
19286;BME280;9776;50.798;6.430;2023-02-20T05:04:14;101024.56;;;7.44;68.40
19286;BME280;9776;50.798;6.430;2023-02-20T05:06:41;101018.72;;;7.41;68.28
19286;BME280;9776;50.798;6.430;2023-02-20T05:09:08;101034.47;;;7.41;68.18
19286;BME280;9776;50.798;6.430;2023-02-20T05:11:35;101024.81;;;7.41;68.06
19286;BME280;9776;50.798;6.430;2023-02-20T05:14:03;101030.06;;;7.41;67.83
19286;BME280;9776;50.798;6.430;2023-02-20T05:16:31;101033.63;;;7.40;67.91
19286;BME280;9776;50.798;6.430;2023-02-20T05:18:58;101019.78;;;7.38;67.91
19286;BME280;9776;50.798;6.430;2023-02-20T05:21:25;101026.59;;;7.41;67.66
19286;BME280;9776;50.798;6.430;2023-02-20T05:24:09;101028.47;;;7.39;67.67
19286;BME280;9776;50.798;6.430;2023-02-20T05:26:36;101015.25;;;7.40;67.50
19286;BME280;9776;50.798;6.430;2023-02-20T05:29:03;101009.06;;;7.41;67.40
19286;BME280;9776;50.798;6.430;2023-02-20T05:31:31;101009.66;;;7.45;67.26
19286;BME280;9776;50.798;6.430;2023-02-20T05:33:57;101006.94;;;7.47;67.23
19286;BME280;9776;50.798;6.430;2023-02-20T05:36:24;101010.25;;;7.49;67.14
19286;BME280;9776;50.798;6.430;2023-02-20T05:38:51;101007.19;;;7.55;66.97
19286;BME280;9776;50.798;6.430;2023-02-20T05:41:18;101005.41;;;7.55;66.70
19286;BME280;9776;50.798;6.430;2023-02-20T05:43:44;101001.47;;;7.61;66.72
19286;BME280;9776;50.798;6.430;2023-02-20T05:46:12;100994.22;;;7.64;66.44
19286;BME280;9776;50.798;6.430;2023-02-20T05:48:41;100996.84;;;7.64;66.31
19286;BME280;9776;50.798;6.430;2023-02-20T05:51:07;101002.81;;;7.66;66.33
19286;BME280;9776;50.798;6.430;2023-02-20T05:53:34;100992.06;;;7.69;66.24
19286;BME280;9776;50.798;6.430;2023-02-20T05:56:02;100996.25;;;7.72;66.05
19286;BME280;9776;50.798;6.430;2023-02-20T05:58:29;100995.31;;;7.73;65.81
19286;BME280;9776;50.798;6.430;2023-02-20T06:00:55;101004.84;;;7.74;65.71
19286;BME280;9776;50.798;6.430;2023-02-20T06:03:22;100996.75;;;7.77;65.47
19286;BME280;9776;50.798;6.430;2023-02-20T06:05:50;100993.03;;;7.79;65.29
19286;BME280;9776;50.798;6.430;2023-02-20T06:08:17;101003.56;;;7.79;65.36
19286;BME280;9776;50.798;6.430;2023-02-20T06:10:43;101000.00;;;7.80;65.30
19286;BME280;9776;50.798;6.430;2023-02-20T06:13:10;100997.50;;;7.79;65.07
19286;BME280;9776;50.798;6.430;2023-02-20T06:15:37;101001.06;;;7.78;64.96
19286;BME280;9776;50.798;6.430;2023-02-20T06:18:04;101000.22;;;7.77;64.94
19286;BME280;9776;50.798;6.430;2023-02-20T06:20:31;101002.34;;;7.72;65.02
19286;BME280;9776;50.798;6.430;2023-02-20T06:22:59;100997.09;;;7.72;64.88
19286;BME280;9776;50.798;6.430;2023-02-20T06:25:25;100998.19;;;7.70;65.01
19286;BME280;9776;50.798;6.430;2023-02-20T06:27:52;101001.75;;;7.69;64.91
19286;BME280;9776;50.798;6.430;2023-02-20T06:30:19;100994.94;;;7.66;64.75
19286;BME280;9776;50.798;6.430;2023-02-20T06:32:46;100986.22;;;7.66;64.77
19286;BME280;9776;50.798;6.430;2023-02-20T06:35:12;100988.97;;;7.64;64.63
19286;BME280;9776;50.798;6.430;2023-02-20T06:37:41;100983.94;;;7.61;64.71
19286;BME280;9776;50.798;6.430;2023-02-20T06:40:10;100983.09;;;7.61;64.55
19286;BME280;9776;50.798;6.430;2023-02-20T06:42:37;100986.66;;;7.60;64.38
19286;BME280;9776;50.798;6.430;2023-02-20T06:45:04;100985.09;;;7.57;64.57
19286;BME280;9776;50.798;6.430;2023-02-20T06:47:30;100984.38;;;7.55;64.33
19286;BME280;9776;50.798;6.430;2023-02-20T06:49:57;100992.03;;;7.58;64.37
19286;BME280;9776;50.798;6.430;2023-02-20T06:52:24;100991.06;;;7.59;64.17
19286;BME280;9776;50.798;6.430;2023-02-20T06:54:51;100997.06;;;7.61;64.04
19286;BME280;9776;50.798;6.430;2023-02-20T06:57:20;101001.34;;;7.62;64.12
19286;BME280;9776;50.798;6.430;2023-02-20T06:59:46;101003.97;;;7.62;64.00
19286;BME280;9776;50.798;6.430;2023-02-20T07:02:15;101009.97;;;7.64;63.88
19286;BME280;9776;50.798;6.430;2023-02-20T07:04:46;101010.69;;;7.66;63.70
19286;BME280;9776;50.798;6.430;2023-02-20T07:07:13;101008.06;;;7.66;63.71
19286;BME280;9776;50.798;6.430;2023-02-20T07:09:40;101019.28;;;7.68;63.59
19286;BME280;9776;50.798;6.430;2023-02-20T07:12:07;101028.63;;;7.72;63.60
19286;BME280;9776;50.798;6.430;2023-02-20T07:14:35;101020.63;;;7.74;63.53
19286;BME280;9776;50.798;6.430;2023-02-20T07:17:02;101028.28;;;7.77;63.66
19286;BME280;9776;50.798;6.430;2023-02-20T07:19:28;101022.94;;;7.78;63.71
19286;BME280;9776;50.798;6.430;2023-02-20T07:21:55;101027.44;;;7.76;63.77
19286;BME280;9776;50.798;6.430;2023-02-20T07:24:22;101030.91;;;7.77;63.68
19286;BME280;9776;50.798;6.430;2023-02-20T07:26:49;101034.88;;;7.82;63.71
19286;BME280;9776;50.798;6.430;2023-02-20T07:29:15;101031.44;;;7.82;63.84
19286;BME280;9776;50.798;6.430;2023-02-20T07:31:43;101033.91;;;7.83;63.81
19286;BME280;9776;50.798;6.430;2023-02-20T07:34:10;101043.72;;;7.81;63.98
19286;BME280;9776;50.798;6.430;2023-02-20T07:36:37;101033.22;;;7.81;64.13
19286;BME280;9776;50.798;6.430;2023-02-20T07:39:04;101045.59;;;7.79;64.04
19286;BME280;9776;50.798;6.430;2023-02-20T07:41:32;101056.88;;;7.81;64.28
19286;BME280;9776;50.798;6.430;2023-02-20T07:44:00;101048.75;;;7.84;64.32
19286;BME280;9776;50.798;6.430;2023-02-20T07:46:26;101047.06;;;7.83;64.44
19286;BME280;9776;50.798;6.430;2023-02-20T07:48:59;101047.56;;;7.88;64.34
19286;BME280;9776;50.798;6.430;2023-02-20T07:51:26;101051.63;;;7.92;64.33
19286;BME280;9776;50.798;6.430;2023-02-20T07:53:53;101060.13;;;7.96;64.46
19286;BME280;9776;50.798;6.430;2023-02-20T07:56:20;101047.59;;;7.99;64.44
19286;BME280;9776;50.798;6.430;2023-02-20T07:58:48;101049.88;;;8.04;64.57
19286;BME280;9776;50.798;6.430;2023-02-20T08:01:16;101051.91;;;8.12;64.45
19286;BME280;9776;50.798;6.430;2023-02-20T08:03:43;101065.56;;;8.17;64.49
19286;BME280;9776;50.798;6.430;2023-02-20T08:06:11;101056.16;;;8.25;64.33
19286;BME280;9776;50.798;6.430;2023-02-20T08:08:38;101063.91;;;8.27;64.38
19286;BME280;9776;50.798;6.430;2023-02-20T08:11:05;101059.28;;;8.30;64.35
19286;BME280;9776;50.798;6.430;2023-02-20T08:13:31;101056.91;;;8.38;64.44
19286;BME280;9776;50.798;6.430;2023-02-20T08:15:58;101060.63;;;8.47;64.24
19286;BME280;9776;50.798;6.430;2023-02-20T08:18:25;101068.53;;;8.47;64.35
19286;BME280;9776;50.798;6.430;2023-02-20T08:20:52;101065.53;;;8.51;64.42
19286;BME280;9776;50.798;6.430;2023-02-20T08:23:22;101076.41;;;8.58;64.46
19286;BME280;9776;50.798;6.430;2023-02-20T08:25:50;101065.19;;;8.56;64.43
19286;BME280;9776;50.798;6.430;2023-02-20T08:28:17;101067.69;;;8.57;64.52
19286;BME280;9776;50.798;6.430;2023-02-20T08:30:44;101068.28;;;8.61;64.58
19286;BME280;9776;50.798;6.430;2023-02-20T08:33:11;101079.06;;;8.58;64.65
19286;BME280;9776;50.798;6.430;2023-02-20T08:35:38;101081.91;;;8.55;64.92
19286;BME280;9776;50.798;6.430;2023-02-20T08:38:07;101078.34;;;8.56;64.83
19286;BME280;9776;50.798;6.430;2023-02-20T08:40:48;101077.63;;;8.54;65.21
19286;BME280;9776;50.798;6.430;2023-02-20T08:43:15;101086.47;;;8.53;65.30
19286;BME280;9776;50.798;6.430;2023-02-20T08:45:42;101082.75;;;8.55;65.42
19286;BME280;9776;50.798;6.430;2023-02-20T08:48:08;101090.91;;;8.64;65.35
19286;BME280;9776;50.798;6.430;2023-02-20T08:50:35;101086.84;;;8.71;65.12
19286;BME280;9776;50.798;6.430;2023-02-20T08:53:02;101091.03;;;8.73;65.31
19286;BME280;9776;50.798;6.430;2023-02-20T08:55:29;101093.06;;;8.81;65.12
19286;BME280;9776;50.798;6.430;2023-02-20T08:57:57;101091.75;;;8.86;65.14
19286;BME280;9776;50.798;6.430;2023-02-20T09:00:23;101095.34;;;8.85;65.26
19286;BME280;9776;50.798;6.430;2023-02-20T09:02:50;101100.63;;;8.85;65.38
19286;BME280;9776;50.798;6.430;2023-02-20T09:05:17;101095.13;;;8.88;65.27
19286;BME280;9776;50.798;6.430;2023-02-20T09:07:44;101091.50;;;8.89;65.20
19286;BME280;9776;50.798;6.430;2023-02-20T09:10:11;101096.41;;;8.94;65.29
19286;BME280;9776;50.798;6.430;2023-02-20T09:12:38;101093.91;;;8.92;65.31
19286;BME280;9776;50.798;6.430;2023-02-20T09:15:08;101095.31;;;9.07;65.23
19286;BME280;9776;50.798;6.430;2023-02-20T09:17:35;101100.34;;;9.22;65.04
19286;BME280;9776;50.798;6.430;2023-02-20T09:20:02;101103.09;;;9.31;64.67
19286;BME280;9776;50.798;6.430;2023-02-20T09:22:29;101107.72;;;9.39;64.64
19286;BME280;9776;50.798;6.430;2023-02-20T09:24:56;101109.28;;;9.41;64.48
19286;BME280;9776;50.798;6.430;2023-02-20T09:27:22;101110.31;;;9.61;64.28
19286;BME280;9776;50.798;6.430;2023-02-20T09:29:49;101109.31;;;9.73;63.86
19286;BME280;9776;50.798;6.430;2023-02-20T09:32:17;101115.63;;;9.82;63.81
19286;BME280;9776;50.798;6.430;2023-02-20T09:34:44;101112.38;;;9.89;63.38
19286;BME280;9776;50.798;6.430;2023-02-20T09:37:11;101115.44;;;9.74;63.49
19286;BME280;9776;50.798;6.430;2023-02-20T09:39:40;101117.06;;;9.54;63.80
19286;BME280;9776;50.798;6.430;2023-02-20T09:42:18;101127.13;;;9.49;63.84
19286;BME280;9776;50.798;6.430;2023-02-20T09:44:54;101121.63;;;9.52;63.75
19286;BME280;9776;50.798;6.430;2023-02-20T09:47:37;101111.88;;;9.52;63.61
19286;BME280;9776;50.798;6.430;2023-02-20T09:50:11;101111.88;;;10.27;62.02
19286;BME280;9776;50.798;6.430;2023-02-20T09:52:43;101104.66;;;10.70;60.69
19286;BME280;9776;50.798;6.430;2023-02-20T09:55:16;101107.63;;;10.87;60.57
19286;BME280;9776;50.798;6.430;2023-02-20T09:57:48;101094.44;;;10.87;60.38
19286;BME280;9776;50.798;6.430;2023-02-20T10:00:21;101087.47;;;10.86;60.67
19286;BME280;9776;50.798;6.430;2023-02-20T10:02:58;101080.47;;;11.15;60.30
19286;BME280;9776;50.798;6.430;2023-02-20T10:05:30;101079.38;;;12.61;57.67
19286;BME280;9776;50.798;6.430;2023-02-20T10:07:57;101069.25;;;14.70;53.17
19286;BME280;9776;50.798;6.430;2023-02-20T10:10:26;101074.09;;;16.63;48.84
19286;BME280;9776;50.798;6.430;2023-02-20T10:13:01;101070.41;;;18.18;45.64
19286;BME280;9776;50.798;6.430;2023-02-20T10:15:35;101078.91;;;19.03;44.36
19286;BME280;9776;50.798;6.430;2023-02-20T10:18:15;101077.19;;;19.46;43.25
19286;BME280;9776;50.798;6.430;2023-02-20T10:20:51;101077.00;;;20.32;41.68
19286;BME280;9776;50.798;6.430;2023-02-20T10:23:28;101074.00;;;20.42;41.28
19286;BME280;9776;50.798;6.430;2023-02-20T10:26:01;101062.81;;;20.31;41.30
19286;BME280;9776;50.798;6.430;2023-02-20T10:28:30;101062.94;;;20.85;40.56
19286;BME280;9776;50.798;6.430;2023-02-20T10:30:59;101059.97;;;20.74;40.35
19286;BME280;9776;50.798;6.430;2023-02-20T10:33:32;101065.81;;;20.84;40.10
19286;BME280;9776;50.798;6.430;2023-02-20T10:36:07;101066.91;;;20.62;40.18
19286;BME280;9776;50.798;6.430;2023-02-20T10:38:40;101071.84;;;20.58;40.24
19286;BME280;9776;50.798;6.430;2023-02-20T10:41:13;101047.84;;;20.22;40.38
19286;BME280;9776;50.798;6.430;2023-02-20T10:43:47;101055.91;;;20.84;39.14
19286;BME280;9776;50.798;6.430;2023-02-20T10:46:19;101068.03;;;21.08;38.36
19286;BME280;9776;50.798;6.430;2023-02-20T10:48:53;101056.41;;;21.55;37.72
19286;BME280;9776;50.798;6.430;2023-02-20T10:51:26;101064.25;;;21.43;37.71
19286;BME280;9776;50.798;6.430;2023-02-20T10:53:59;101060.66;;;21.30;37.95
19286;BME280;9776;50.798;6.430;2023-02-20T10:56:32;101063.94;;;21.12;37.91
19286;BME280;9776;50.798;6.430;2023-02-20T10:59:07;101060.28;;;21.39;37.54
19286;BME280;9776;50.798;6.430;2023-02-20T11:01:36;101054.72;;;21.34;37.51
19286;BME280;9776;50.798;6.430;2023-02-20T11:04:08;101048.72;;;21.32;37.33
19286;BME280;9776;50.798;6.430;2023-02-20T11:06:39;101062.84;;;21.61;36.77
19286;BME280;9776;50.798;6.430;2023-02-20T11:09:08;101055.66;;;22.46;35.64
19286;BME280;9776;50.798;6.430;2023-02-20T11:11:36;101048.97;;;23.33;34.32
19286;BME280;9776;50.798;6.430;2023-02-20T11:14:11;101054.38;;;23.70;33.59
19286;BME280;9776;50.798;6.430;2023-02-20T11:16:43;101044.59;;;24.32;33.06
19286;BME280;9776;50.798;6.430;2023-02-20T11:19:17;101029.19;;;24.94;31.85
19286;BME280;9776;50.798;6.430;2023-02-20T11:21:47;101025.97;;;25.03;31.43
19286;BME280;9776;50.798;6.430;2023-02-20T11:24:30;101026.94;;;24.72;32.15
19286;BME280;9776;50.798;6.430;2023-02-20T11:26:59;101017.31;;;25.31;31.23
19286;BME280;9776;50.798;6.430;2023-02-20T11:29:36;101008.41;;;25.42;31.30
19286;BME280;9776;50.798;6.430;2023-02-20T11:32:26;101002.09;;;25.18;31.42
19286;BME280;9776;50.798;6.430;2023-02-20T11:35:27;101003.38;;;24.79;31.56
19286;BME280;9776;50.798;6.430;2023-02-20T11:38:21;100993.94;;;24.70;31.79
19286;BME280;9776;50.798;6.430;2023-02-20T11:41:01;100992.75;;;24.66;31.86
19286;BME280;9776;50.798;6.430;2023-02-20T11:43:31;100992.56;;;24.79;31.72
19286;BME280;9776;50.798;6.430;2023-02-20T11:46:07;101005.63;;;25.19;31.02
19286;BME280;9776;50.798;6.430;2023-02-20T11:48:34;100998.63;;;25.59;30.45
19286;BME280;9776;50.798;6.430;2023-02-20T11:51:02;100988.56;;;26.47;29.52
19286;BME280;9776;50.798;6.430;2023-02-20T11:53:30;100989.72;;;26.86;28.96
19286;BME280;9776;50.798;6.430;2023-02-20T11:56:08;100976.16;;;27.15;28.39
19286;BME280;9776;50.798;6.430;2023-02-20T11:58:37;100976.50;;;27.63;28.06
19286;BME280;9776;50.798;6.430;2023-02-20T12:01:05;100961.00;;;27.58;27.86
19286;BME280;9776;50.798;6.430;2023-02-20T12:03:33;100957.38;;;27.70;27.59
19286;BME280;9776;50.798;6.430;2023-02-20T12:06:25;100948.28;;;28.14;27.06
19286;BME280;9776;50.798;6.430;2023-02-20T12:08:51;100955.19;;;28.60;26.82
19286;BME280;9776;50.798;6.430;2023-02-20T12:11:20;100968.13;;;28.96;26.05
19286;BME280;9776;50.798;6.430;2023-02-20T12:13:49;100969.47;;;28.72;26.44
19286;BME280;9776;50.798;6.430;2023-02-20T12:16:29;100959.38;;;28.29;26.69
19286;BME280;9776;50.798;6.430;2023-02-20T12:19:03;100957.59;;;28.18;27.08
19286;BME280;9776;50.798;6.430;2023-02-20T12:21:42;100941.47;;;27.45;27.54
19286;BME280;9776;50.798;6.430;2023-02-20T12:24:37;100919.41;;;27.53;27.86
19286;BME280;9776;50.798;6.430;2023-02-20T12:27:23;100922.47;;;28.28;27.00
19286;BME280;9776;50.798;6.430;2023-02-20T12:29:58;100921.03;;;28.64;26.53
19286;BME280;9776;50.798;6.430;2023-02-20T12:32:36;100925.50;;;28.53;26.38
19286;BME280;9776;50.798;6.430;2023-02-20T12:35:25;100933.47;;;28.60;26.64
19286;BME280;9776;50.798;6.430;2023-02-20T12:38:11;100925.16;;;28.93;25.94
19286;BME280;9776;50.798;6.430;2023-02-20T12:40:51;100908.53;;;28.90;26.13
19286;BME280;9776;50.798;6.430;2023-02-20T12:43:26;100897.88;;;28.61;26.40
19286;BME280;9776;50.798;6.430;2023-02-20T12:46:05;100887.94;;;28.94;25.87
19286;BME280;9776;50.798;6.430;2023-02-20T12:48:45;100894.94;;;29.16;25.41
19286;BME280;9776;50.798;6.430;2023-02-20T12:51:24;100893.03;;;28.42;26.43
19286;BME280;9776;50.798;6.430;2023-02-20T12:54:15;100880.56;;;27.86;27.09
19286;BME280;9776;50.798;6.430;2023-02-20T12:56:57;100879.84;;;27.90;27.05
19286;BME280;9776;50.798;6.430;2023-02-20T12:59:27;100897.16;;;27.89;26.82
19286;BME280;9776;50.798;6.430;2023-02-20T13:02:11;100895.09;;;28.78;26.02
19286;BME280;9776;50.798;6.430;2023-02-20T13:04:44;100891.50;;;27.24;27.94
19286;BME280;9776;50.798;6.430;2023-02-20T13:07:15;100883.88;;;25.55;29.90
19286;BME280;9776;50.798;6.430;2023-02-20T13:09:53;100883.34;;;24.09;31.63
19286;BME280;9776;50.798;6.430;2023-02-20T13:12:22;100863.97;;;22.57;33.86
19286;BME280;9776;50.798;6.430;2023-02-20T13:14:57;100864.59;;;21.82;34.91
19286;BME280;9776;50.798;6.430;2023-02-20T13:17:31;100857.69;;;22.26;34.28
19286;BME280;9776;50.798;6.430;2023-02-20T13:20:08;100855.66;;;22.21;34.38
19286;BME280;9776;50.798;6.430;2023-02-20T13:22:36;100849.47;;;22.14;34.33
19286;BME280;9776;50.798;6.430;2023-02-20T13:25:36;100848.91;;;22.50;34.03
19286;BME280;9776;50.798;6.430;2023-02-20T13:28:21;100845.97;;;23.95;31.90
19286;BME280;9776;50.798;6.430;2023-02-20T13:31:06;100841.47;;;24.25;31.44
19286;BME280;9776;50.798;6.430;2023-02-20T13:33:35;100840.72;;;24.00;32.03
19286;BME280;9776;50.798;6.430;2023-02-20T13:36:03;100838.13;;;22.56;34.11
19286;BME280;9776;50.798;6.430;2023-02-20T13:38:30;100835.09;;;21.36;36.08